createdAt,value
2023-02-23T00:01:27.509Z,4.03
2023-02-23T00:03:58.342Z,4.40
2023-02-23T00:06:28.496Z,4.33
2023-02-23T00:08:58.132Z,4.37
2023-02-23T00:11:27.655Z,4.37
2023-02-23T00:13:56.825Z,4.10
2023-02-23T00:16:26.588Z,4.30
2023-02-23T00:19:00.288Z,4.30
2023-02-23T00:21:30.230Z,3.47
2023-02-23T00:24:00.357Z,3.70
2023-02-23T00:26:33.802Z,4.13
2023-02-23T00:29:02.743Z,4.00
2023-02-23T00:31:30.758Z,3.60
2023-02-23T00:34:01.955Z,3.50
2023-02-23T00:36:31.433Z,3.47
2023-02-23T00:39:01.278Z,3.37
2023-02-23T00:41:29.912Z,3.60
2023-02-23T00:43:59.127Z,3.33
2023-02-23T00:46:28.865Z,2.80
2023-02-23T00:48:59.920Z,3.30
2023-02-23T00:51:30.998Z,2.77
2023-02-23T00:54:00.402Z,2.80
2023-02-23T00:56:29.161Z,2.70
2023-02-23T00:58:57.470Z,2.60
2023-02-23T01:01:26.191Z,2.90
2023-02-23T01:03:54.146Z,2.83
2023-02-23T01:06:23.777Z,2.33
2023-02-23T01:08:56.531Z,2.60
2023-02-23T01:11:27.792Z,2.73
2023-02-23T01:13:57.660Z,2.70
2023-02-23T01:16:29.296Z,2.50
2023-02-23T01:18:58.433Z,2.70
2023-02-23T01:21:30.334Z,2.83
2023-02-23T01:23:59.017Z,2.83
2023-02-23T01:26:28.836Z,3.33
2023-02-23T01:28:58.596Z,2.97
2023-02-23T01:31:27.451Z,2.77
2023-02-23T01:33:56.310Z,3.00
2023-02-23T01:36:25.469Z,3.70
2023-02-23T01:38:56.379Z,3.37
2023-02-23T01:41:26.837Z,3.00
2023-02-23T01:43:59.279Z,2.33
2023-02-23T01:46:27.364Z,2.60
2023-02-23T01:48:56.570Z,2.80
2023-02-23T01:51:27.502Z,2.87
2023-02-23T01:54:03.316Z,3.00
2023-02-23T01:56:35.617Z,3.07
2023-02-23T01:59:07.541Z,3.80
2023-02-23T02:01:35.443Z,3.47
2023-02-23T02:04:06.563Z,4.00
2023-02-23T02:06:36.429Z,3.90
2023-02-23T02:09:10.569Z,3.90
2023-02-23T02:11:38.926Z,4.47
2023-02-23T02:14:12.823Z,4.63
2023-02-23T02:16:50.933Z,4.47
2023-02-23T02:19:41.227Z,4.63
2023-02-23T02:22:36.772Z,5.40
2023-02-23T02:25:44.493Z,4.70
2023-02-23T02:28:31.743Z,5.10
2023-02-23T02:31:40.916Z,5.20
2023-02-23T02:34:26.455Z,4.67
2023-02-23T02:37:23.764Z,5.30
2023-02-23T02:40:15.493Z,5.97
2023-02-23T02:43:08.194Z,5.30
2023-02-23T02:45:46.288Z,6.30
2023-02-23T02:48:21.565Z,6.73
2023-02-23T02:50:55.480Z,6.87
2023-02-23T02:53:31.616Z,5.80
2023-02-23T02:56:05.471Z,6.40
2023-02-23T02:58:33.810Z,6.20
2023-02-23T03:01:26.569Z,6.37
2023-02-23T03:04:11.904Z,6.87
2023-02-23T03:07:04.553Z,6.40
2023-02-23T03:10:00.630Z,6.50
2023-02-23T03:12:56.143Z,6.13
2023-02-23T03:15:54.990Z,7.13
2023-02-23T03:18:55.190Z,6.40
2023-02-23T03:21:45.610Z,6.27
2023-02-23T03:24:41.024Z,6.73
2023-02-23T03:27:39.190Z,5.97
2023-02-23T03:30:32.598Z,7.00
2023-02-23T03:33:22.055Z,6.70
2023-02-23T03:36:11.981Z,6.83
2023-02-23T03:39:03.892Z,7.10
2023-02-23T03:41:50.385Z,6.80
2023-02-23T03:44:42.923Z,7.10
2023-02-23T03:47:32.760Z,7.30
2023-02-23T03:50:23.916Z,7.10
2023-02-23T03:53:14.353Z,7.27
2023-02-23T03:56:06.924Z,7.90
2023-02-23T03:58:56.825Z,8.30
2023-02-23T04:01:45.627Z,7.70
2023-02-23T04:04:30.954Z,7.20
2023-02-23T04:07:19.610Z,8.40
2023-02-23T04:10:05.291Z,7.70
2023-02-23T04:12:55.828Z,7.60
2023-02-23T04:15:27.681Z,8.20
2023-02-23T04:17:57.147Z,7.73
2023-02-23T04:20:26.774Z,8.97
2023-02-23T04:22:54.588Z,8.20
2023-02-23T04:25:23.060Z,8.30
2023-02-23T04:27:51.166Z,7.23
2023-02-23T04:30:20.488Z,9.00
2023-02-23T04:32:48.404Z,6.87
2023-02-23T04:35:17.608Z,9.13
2023-02-23T04:37:45.460Z,7.33
2023-02-23T04:40:14.336Z,8.93
2023-02-23T04:42:42.668Z,9.30
2023-02-23T04:45:11.659Z,6.87
2023-02-23T04:47:39.521Z,8.50
2023-02-23T04:50:08.398Z,8.27
2023-02-23T04:52:37.646Z,8.73
2023-02-23T04:55:06.948Z,9.10
2023-02-23T04:57:35.210Z,9.00
2023-02-23T05:00:04.426Z,8.77
2023-02-23T05:02:32.410Z,8.47
2023-02-23T05:05:00.296Z,8.50
2023-02-23T05:07:28.180Z,9.47
2023-02-23T05:09:57.355Z,8.97
2023-02-23T05:12:25.139Z,8.27
2023-02-23T05:14:52.984Z,9.17
2023-02-23T05:17:20.894Z,9.03
2023-02-23T05:19:48.677Z,9.30
2023-02-23T05:22:16.732Z,9.00
2023-02-23T05:24:44.493Z,8.90
2023-02-23T05:27:14.079Z,9.33
2023-02-23T05:29:41.904Z,9.20
2023-02-23T05:32:09.746Z,9.50
2023-02-23T05:34:39.017Z,8.33
2023-02-23T05:37:07.152Z,10.03
2023-02-23T05:39:34.909Z,9.50
2023-02-23T05:42:02.719Z,10.33
2023-02-23T05:44:31.905Z,10.30
2023-02-23T05:46:59.748Z,9.63
2023-02-23T05:49:27.572Z,9.83
2023-02-23T05:51:55.336Z,9.90
2023-02-23T05:54:23.127Z,8.90
2023-02-23T05:56:50.990Z,9.37
2023-02-23T05:59:18.849Z,9.53
2023-02-23T06:01:47.966Z,9.90
2023-02-23T06:04:17.270Z,10.40
2023-02-23T06:06:45.383Z,9.50
2023-02-23T06:09:13.184Z,9.00
2023-02-23T06:11:40.985Z,9.23
2023-02-23T06:14:08.804Z,9.10
2023-02-23T06:16:36.793Z,9.13
2023-02-23T06:19:06.033Z,8.97
2023-02-23T06:21:34.189Z,8.30
2023-02-23T06:24:02.488Z,10.27
2023-02-23T06:26:30.400Z,9.90
2023-02-23T06:28:58.162Z,9.67
2023-02-23T06:31:25.974Z,9.43
2023-02-23T06:33:53.813Z,10.33
2023-02-23T06:36:23.001Z,9.67
2023-02-23T06:38:50.753Z,9.07
2023-02-23T06:41:18.942Z,10.30
2023-02-23T06:43:46.908Z,10.63
2023-02-23T06:46:14.884Z,10.30
2023-02-23T06:48:42.778Z,10.70
2023-02-23T06:51:10.908Z,10.60
2023-02-23T06:53:40.066Z,10.10
2023-02-23T06:56:08.327Z,9.03
2023-02-23T06:58:36.081Z,10.87
2023-02-23T07:01:04.000Z,11.97
2023-02-23T07:03:31.767Z,11.33
2023-02-23T07:05:59.572Z,10.43
2023-02-23T07:08:27.413Z,10.60
2023-02-23T07:10:57.737Z,9.77
2023-02-23T07:13:25.498Z,10.37
2023-02-23T07:15:58.303Z,10.80
2023-02-23T07:18:26.615Z,10.20
2023-02-23T07:20:54.498Z,11.07
2023-02-23T07:23:23.077Z,10.67
2023-02-23T07:25:51.750Z,9.80
2023-02-23T07:28:21.355Z,11.60
2023-02-23T07:30:49.907Z,11.40
2023-02-23T07:33:17.837Z,12.20
2023-02-23T07:35:45.964Z,13.00
2023-02-23T07:38:13.758Z,12.77
2023-02-23T07:40:41.622Z,13.47
2023-02-23T07:43:09.472Z,14.93
2023-02-23T07:45:38.805Z,14.37
2023-02-23T07:48:06.876Z,13.50
2023-02-23T07:50:35.571Z,14.10
2023-02-23T07:53:03.393Z,14.43
2023-02-23T07:55:31.142Z,13.87
2023-02-23T07:57:59.094Z,14.10
2023-02-23T08:00:27.128Z,13.57
2023-02-23T08:02:56.224Z,14.30
2023-02-23T08:05:26.575Z,13.33
2023-02-23T08:07:54.542Z,13.77
2023-02-23T08:10:22.310Z,13.80
2023-02-23T08:12:50.132Z,12.83
2023-02-23T08:15:18.011Z,13.67
2023-02-23T08:17:45.789Z,13.00
2023-02-23T08:20:15.297Z,12.40
2023-02-23T08:22:49.627Z,13.50
2023-02-23T08:25:18.302Z,13.00
2023-02-23T08:27:46.346Z,13.33
2023-02-23T08:30:15.465Z,12.00
2023-02-23T08:32:43.351Z,12.30
2023-02-23T08:35:11.801Z,12.33
2023-02-23T08:37:41.871Z,13.27
2023-02-23T08:40:12.514Z,11.10
2023-02-23T08:42:40.267Z,11.20
2023-02-23T08:45:09.062Z,10.90
2023-02-23T08:47:36.884Z,11.40
2023-02-23T08:50:05.125Z,11.70
2023-02-23T08:52:32.993Z,11.27
2023-02-23T08:55:02.095Z,11.40
2023-02-23T08:57:29.877Z,12.07
2023-02-23T08:59:57.678Z,12.87
2023-02-23T09:02:25.481Z,12.23
2023-02-23T09:04:54.032Z,9.83
2023-02-23T09:07:23.511Z,10.10
2023-02-23T09:09:55.138Z,9.40
2023-02-23T09:12:24.326Z,8.87
2023-02-23T09:14:53.707Z,9.47
2023-02-23T09:17:23.047Z,8.93
2023-02-23T09:19:51.079Z,8.83
2023-02-23T09:22:19.831Z,8.27
2023-02-23T09:24:47.644Z,8.13
2023-02-23T09:27:15.578Z,7.60
2023-02-23T09:29:44.693Z,8.50
2023-02-23T09:32:13.577Z,8.47
2023-02-23T09:34:41.375Z,8.13
2023-02-23T09:37:09.546Z,6.90
2023-02-23T09:39:38.934Z,8.47
2023-02-23T09:42:26.682Z,7.07
2023-02-23T09:45:08.453Z,7.03
2023-02-23T09:47:47.349Z,7.33
2023-02-23T09:50:18.553Z,6.43
2023-02-23T09:52:50.323Z,6.90
2023-02-23T09:55:18.387Z,6.17
2023-02-23T09:57:48.622Z,6.23
2023-02-23T10:00:22.739Z,8.10
2023-02-23T10:03:19.154Z,7.00
2023-02-23T10:05:53.313Z,7.40
2023-02-23T10:08:31.769Z,7.00
2023-02-23T10:11:09.178Z,6.50
2023-02-23T10:13:48.770Z,7.10
2023-02-23T10:16:24.824Z,7.50
2023-02-23T10:19:03.994Z,7.63
2023-02-23T10:21:37.052Z,6.93
2023-02-23T10:24:08.301Z,7.17
2023-02-23T10:26:48.272Z,6.50
2023-02-23T10:29:23.251Z,7.10
2023-02-23T10:31:57.790Z,6.70
2023-02-23T10:34:27.720Z,6.20
2023-02-23T10:36:59.612Z,6.43
2023-02-23T10:39:28.239Z,6.60
2023-02-23T10:41:59.222Z,7.00
2023-02-23T10:44:28.610Z,7.20
2023-02-23T10:47:01.647Z,7.20
2023-02-23T10:49:40.038Z,6.90
2023-02-23T10:52:13.661Z,7.60
2023-02-23T10:54:45.650Z,7.20
2023-02-23T10:57:21.025Z,7.30
2023-02-23T11:00:30.609Z,7.07
2023-02-23T11:03:01.318Z,6.90
2023-02-23T11:05:33.896Z,7.00
2023-02-23T11:08:29.304Z,7.70
2023-02-23T11:11:09.636Z,8.53
2023-02-23T11:13:41.090Z,6.73
2023-02-23T11:16:13.451Z,5.57
2023-02-23T11:18:49.759Z,5.47
2023-02-23T11:21:24.686Z,6.40
2023-02-23T11:23:54.764Z,7.77
2023-02-23T11:26:29.508Z,7.23
2023-02-23T11:28:59.529Z,7.33
2023-02-23T11:31:33.112Z,7.33
2023-02-23T11:34:04.417Z,6.23
2023-02-23T11:36:34.575Z,6.90
2023-02-23T11:39:09.128Z,6.80
2023-02-23T11:41:37.527Z,7.13
2023-02-23T11:44:06.338Z,6.87
2023-02-23T11:46:39.066Z,7.70
2023-02-23T11:49:10.227Z,7.20
2023-02-23T11:51:40.973Z,6.67
2023-02-23T11:54:21.067Z,7.07
2023-02-23T11:56:52.111Z,7.27
2023-02-23T11:59:23.158Z,7.47
2023-02-23T12:01:54.052Z,7.70
2023-02-23T12:04:30.809Z,7.00
2023-02-23T12:07:31.492Z,6.77
2023-02-23T12:10:06.439Z,6.87
2023-02-23T12:12:41.046Z,6.73
2023-02-23T12:15:16.023Z,7.43
2023-02-23T12:17:50.262Z,6.53
2023-02-23T12:20:24.239Z,6.50
2023-02-23T12:22:55.663Z,6.70
2023-02-23T12:25:28.451Z,6.67
2023-02-23T12:28:16.867Z,6.53
2023-02-23T12:30:51.922Z,5.60
2023-02-23T12:33:30.171Z,5.90
2023-02-23T12:36:03.663Z,5.50
2023-02-23T12:38:40.766Z,5.10
2023-02-23T12:41:13.586Z,5.93
2023-02-23T12:43:51.372Z,5.10
2023-02-23T12:46:23.075Z,5.00
2023-02-23T12:49:01.553Z,5.20
2023-02-23T12:51:35.221Z,5.63
2023-02-23T12:54:03.634Z,5.87
2023-02-23T12:56:48.351Z,5.50
2023-02-23T12:59:32.929Z,4.90
2023-02-23T13:02:03.814Z,5.70
2023-02-23T13:05:15.490Z,6.73
2023-02-23T13:07:51.198Z,6.50
2023-02-23T13:10:27.681Z,5.33
2023-02-23T13:13:05.474Z,6.10
2023-02-23T13:15:47.420Z,5.57
2023-02-23T13:18:23.578Z,5.87
2023-02-23T13:20:55.879Z,5.80
2023-02-23T13:23:32.662Z,5.77
2023-02-23T13:26:12.969Z,5.30
2023-02-23T13:28:53.576Z,5.00
2023-02-23T13:31:25.446Z,5.20
2023-02-23T13:33:55.247Z,5.90
2023-02-23T13:36:23.968Z,5.40
2023-02-23T13:39:20.683Z,5.53
2023-02-23T13:41:56.953Z,4.47
2023-02-23T13:44:30.827Z,5.20
2023-02-23T13:47:06.925Z,5.73
2023-02-23T13:49:41.924Z,5.10
2023-02-23T13:52:30.210Z,4.87
2023-02-23T13:55:04.440Z,5.00
2023-02-23T13:57:33.540Z,4.90
2023-02-23T14:00:02.220Z,4.37
2023-02-23T14:02:37.583Z,4.17
2023-02-23T14:05:14.204Z,4.00
2023-02-23T14:07:44.974Z,4.67
2023-02-23T14:10:21.910Z,4.60
2023-02-23T14:13:08.678Z,4.20
2023-02-23T14:15:45.993Z,4.60
2023-02-23T14:18:32.295Z,4.60
2023-02-23T14:21:07.555Z,4.80
2023-02-23T14:23:51.560Z,5.10
2023-02-23T14:26:41.978Z,4.90
2023-02-23T14:29:32.839Z,4.10
2023-02-23T14:32:04.691Z,4.87
2023-02-23T14:34:53.312Z,4.77
2023-02-23T14:37:26.618Z,4.23
2023-02-23T14:39:57.702Z,4.17
2023-02-23T14:42:29.738Z,4.13
2023-02-23T14:44:59.134Z,5.13
2023-02-23T14:47:28.334Z,4.20
2023-02-23T14:49:59.032Z,4.60
2023-02-23T14:52:29.176Z,3.93
2023-02-23T14:55:09.545Z,4.67
2023-02-23T14:57:40.949Z,5.00
2023-02-23T15:00:21.008Z,4.50
2023-02-23T15:03:00.278Z,4.00
2023-02-23T15:05:30.602Z,4.00
2023-02-23T15:08:00.912Z,4.60
2023-02-23T15:10:32.921Z,3.50
2023-02-23T15:13:08.880Z,3.90
2023-02-23T15:15:39.251Z,3.73
2023-02-23T15:19:02.184Z,3.77
2023-02-23T15:21:30.036Z,4.13
2023-02-23T15:24:07.404Z,4.63
2023-02-23T15:26:37.576Z,5.03
2023-02-23T15:29:14.654Z,3.50
2023-02-23T15:31:50.211Z,7.03
2023-02-23T15:34:20.893Z,7.57
2023-02-23T15:36:53.543Z,8.80
2023-02-23T15:39:34.301Z,8.20
2023-02-23T15:42:03.237Z,8.53
2023-02-23T15:44:43.596Z,8.93
2023-02-23T15:47:20.478Z,8.13
2023-02-23T15:49:50.136Z,7.23
2023-02-23T15:52:21.855Z,7.20
2023-02-23T15:54:56.758Z,8.43
2023-02-23T15:57:31.041Z,7.17
2023-02-23T16:00:06.068Z,7.07
2023-02-23T16:02:36.766Z,7.20
2023-02-23T16:05:19.052Z,6.70
2023-02-23T16:07:47.054Z,8.10
2023-02-23T16:10:23.097Z,6.43
2023-02-23T16:12:52.916Z,7.13
2023-02-23T16:15:26.884Z,7.97
2023-02-23T16:18:00.269Z,6.87
2023-02-23T16:20:35.634Z,6.13
2023-02-23T16:23:04.849Z,6.77
2023-02-23T16:25:34.398Z,7.27
2023-02-23T16:28:04.583Z,7.40
2023-02-23T16:30:42.955Z,6.80
2023-02-23T16:33:19.816Z,7.20
2023-02-23T16:35:49.597Z,6.87
2023-02-23T16:38:26.336Z,6.90
2023-02-23T16:40:54.851Z,5.93
2023-02-23T16:43:22.940Z,6.60
2023-02-23T16:45:52.499Z,6.23
2023-02-23T16:48:20.521Z,6.63
2023-02-23T16:50:48.962Z,6.90
2023-02-23T16:53:16.947Z,6.93
2023-02-23T16:55:48.766Z,8.30
2023-02-23T16:58:19.301Z,7.40
2023-02-23T17:00:47.923Z,6.60
2023-02-23T17:03:22.047Z,7.03
2023-02-23T17:05:49.917Z,7.40
2023-02-23T17:08:18.022Z,7.73
2023-02-23T17:10:49.421Z,7.33
2023-02-23T17:13:19.098Z,7.40
2023-02-23T17:15:51.790Z,7.37
2023-02-23T17:20:57.491Z,7.27
2023-02-23T17:23:27.059Z,6.53
2023-02-23T17:25:55.725Z,6.77
2023-02-23T17:28:23.649Z,6.73
2023-02-23T17:30:51.605Z,7.67
2023-02-23T17:33:20.773Z,8.20
2023-02-23T17:35:48.637Z,8.07
2023-02-23T17:38:21.452Z,8.87
2023-02-23T17:40:49.963Z,9.73
2023-02-23T17:43:20.828Z,9.20
2023-02-23T17:45:49.781Z,9.07
2023-02-23T17:48:17.720Z,8.73
2023-02-23T17:50:47.077Z,9.77
2023-02-23T17:53:15.064Z,8.93
2023-02-23T17:55:43.186Z,9.10
2023-02-23T17:58:13.994Z,9.33
2023-02-23T18:00:41.783Z,9.00
2023-02-23T18:03:09.702Z,9.40
2023-02-23T18:05:37.640Z,9.00
2023-02-23T18:08:06.870Z,10.23
2023-02-23T18:10:36.718Z,9.90
2023-02-23T18:13:05.507Z,8.50
2023-02-23T18:15:33.735Z,9.33
2023-02-23T18:18:01.546Z,9.10
2023-02-23T18:20:30.222Z,9.17
2023-02-23T18:22:58.003Z,9.27
2023-02-23T18:25:30.256Z,10.00
2023-02-23T18:27:58.528Z,8.70
2023-02-23T18:30:27.990Z,9.80
2023-02-23T18:32:57.445Z,8.97
2023-02-23T18:35:25.328Z,8.00
2023-02-23T18:37:53.305Z,8.97
2023-02-23T18:40:23.823Z,8.77
2023-02-23T18:42:53.140Z,9.47
2023-02-23T18:45:20.966Z,8.70
2023-02-23T18:47:48.771Z,10.37
2023-02-23T18:50:19.183Z,10.00
2023-02-23T18:52:47.946Z,10.57
2023-02-23T18:55:16.305Z,9.70
2023-02-23T18:57:44.333Z,9.67
2023-02-23T19:00:15.737Z,9.77
2023-02-23T19:02:46.254Z,9.47
2023-02-23T19:05:15.119Z,11.00
2023-02-23T19:07:43.676Z,9.70
2023-02-23T19:10:14.705Z,11.30
2023-02-23T19:12:42.648Z,12.03
2023-02-23T19:15:12.151Z,13.57
2023-02-23T19:17:41.321Z,12.77
2023-02-23T19:20:13.214Z,12.00
2023-02-23T19:22:42.430Z,12.97
2023-02-23T19:25:14.435Z,12.20
2023-02-23T19:27:42.776Z,10.63
2023-02-23T19:30:14.135Z,10.90
2023-02-23T19:32:44.273Z,11.50
2023-02-23T19:35:15.127Z,14.13
2023-02-23T19:37:48.460Z,13.37
2023-02-23T19:40:19.540Z,13.50
2023-02-23T19:42:47.509Z,11.33
2023-02-23T19:45:15.993Z,12.50
2023-02-23T19:47:45.298Z,12.40
2023-02-23T19:50:16.154Z,13.10
2023-02-23T19:52:46.026Z,13.63
2023-02-23T19:55:15.176Z,12.90
2023-02-23T19:57:44.092Z,13.03
2023-02-23T20:00:13.028Z,14.90
2023-02-23T20:02:43.519Z,12.83
2023-02-23T20:05:15.471Z,13.80
2023-02-23T20:07:44.527Z,14.87
2023-02-23T20:10:16.288Z,13.87
2023-02-23T20:12:44.630Z,13.40
2023-02-23T20:15:14.823Z,14.77
2023-02-23T20:17:42.752Z,14.30
2023-02-23T20:20:13.261Z,14.03
2023-02-23T20:22:43.175Z,14.97
2023-02-23T20:25:16.364Z,13.70
2023-02-23T20:27:44.841Z,13.90
2023-02-23T20:30:14.457Z,13.10
2023-02-23T20:32:42.342Z,13.73
2023-02-23T20:35:14.249Z,12.50
2023-02-23T20:37:42.375Z,13.43
2023-02-23T20:40:16.899Z,12.60
2023-02-23T20:42:46.779Z,12.40
2023-02-23T20:45:15.958Z,12.53
2023-02-23T20:47:45.721Z,12.00
2023-02-23T20:50:15.695Z,12.50
2023-02-23T20:52:45.824Z,10.90
2023-02-23T20:55:13.731Z,11.33
2023-02-23T20:57:41.591Z,11.07
2023-02-23T21:00:18.262Z,10.50
2023-02-23T21:02:46.229Z,11.90
2023-02-23T21:05:15.568Z,11.70
2023-02-23T21:07:43.382Z,10.10
2023-02-23T21:10:13.878Z,10.77
2023-02-23T21:12:41.824Z,9.70
2023-02-23T21:15:10.138Z,11.40
2023-02-23T21:17:38.451Z,11.70
2023-02-23T21:20:10.084Z,9.57
2023-02-23T21:22:39.292Z,12.37
2023-02-23T21:25:10.353Z,11.50
2023-02-23T21:27:38.413Z,9.60
2023-02-23T21:30:09.215Z,9.40
2023-02-23T21:32:42.057Z,10.20
2023-02-23T21:35:11.329Z,9.97
2023-02-23T21:37:41.101Z,9.60
2023-02-23T21:40:11.927Z,10.10
2023-02-23T21:42:40.396Z,10.13
2023-02-23T21:45:09.565Z,8.87
2023-02-23T21:47:38.167Z,9.87
2023-02-23T21:50:10.400Z,9.73
2023-02-23T21:52:38.413Z,9.07
2023-02-23T21:55:19.653Z,9.17
2023-02-23T21:57:48.712Z,10.20
2023-02-23T22:00:18.789Z,10.07
2023-02-23T22:02:47.453Z,9.80
2023-02-23T22:05:15.921Z,8.70
2023-02-23T22:07:49.145Z,9.33
2023-02-23T22:10:19.236Z,8.67
2023-02-23T22:12:47.150Z,9.93
2023-02-23T22:15:16.822Z,9.50
2023-02-23T22:17:44.831Z,9.13
2023-02-23T22:20:13.442Z,8.80
2023-02-23T22:22:42.723Z,8.53
2023-02-23T22:25:11.323Z,8.80
2023-02-23T22:27:42.699Z,9.70
2023-02-23T22:30:12.184Z,9.43
2023-02-23T22:32:40.754Z,8.37
2023-02-23T22:35:09.293Z,8.90
2023-02-23T22:37:39.067Z,9.00
2023-02-23T22:40:15.671Z,9.07
2023-02-23T22:42:48.101Z,9.17
2023-02-23T22:45:17.036Z,9.83
2023-02-23T22:47:44.916Z,9.90
2023-02-23T22:50:13.923Z,9.67
2023-02-23T22:52:42.996Z,9.60
2023-02-23T22:55:12.996Z,9.93
2023-02-23T22:57:40.912Z,9.50
2023-02-23T23:00:11.871Z,9.97
2023-02-23T23:02:39.646Z,9.00
2023-02-23T23:05:08.801Z,9.43
2023-02-23T23:07:36.807Z,8.97
2023-02-23T23:10:05.690Z,10.10
2023-02-23T23:12:34.795Z,8.03
2023-02-23T23:15:03.097Z,8.77
2023-02-23T23:17:33.001Z,9.03
2023-02-23T23:20:01.065Z,9.30
2023-02-23T23:22:29.196Z,8.40
2023-02-23T23:24:57.061Z,8.87
2023-02-23T23:27:25.008Z,9.47
2023-02-23T23:29:52.771Z,8.57
2023-02-23T23:32:27.370Z,8.13
2023-02-23T23:34:59.764Z,8.00
2023-02-23T23:37:29.100Z,7.60
2023-02-23T23:40:00.094Z,8.10
2023-02-23T23:42:27.997Z,8.03
2023-02-23T23:44:56.896Z,7.60
2023-02-23T23:47:26.056Z,8.27
2023-02-23T23:49:56.623Z,6.90
2023-02-23T23:52:25.139Z,7.17
2023-02-23T23:54:52.968Z,7.57
2023-02-23T23:57:21.136Z,7.10
2023-02-23T23:59:48.942Z,8.07
